Time;durP1;ratioP1;P1;durP2;ratioP2;P2;SDS_P1;SDS_P2;PMS_P1;PMS_P2;Temp;Humidity;BMP_temperature;BMP_pressure;BME280_temperature;BME280_humidity;BME280_pressure;Samples;Min_cycle;Max_cycle;Signal;HPM_P1;HPM_P2
2021/07/08 00:01:18;;;;;;;11.73;5.35;;;;;;;18.04;81.74;100651.59;5051669;28;20059;-80
2021/07/08 00:03:45;;;;;;;7.28;5.07;;;;;;;18.03;81.56;100641.97;5051522;28;20115;-81
2021/07/08 00:06:11;;;;;;;7.05;5.00;;;;;;;18.11;81.36;100647.38;5051745;28;20021;-80
2021/07/08 00:08:36;;;;;;;8.55;5.10;;;;;;;18.11;81.57;100650.03;5051691;28;20025;-80
2021/07/08 00:11:02;;;;;;;7.45;4.75;;;;;;;18.09;81.01;100652.00;5035817;28;20032;-80
2021/07/08 00:13:29;;;;;;;6.88;4.93;;;;;;;18.03;81.43;100647.28;5050422;28;20055;-80
2021/07/08 00:15:55;;;;;;;7.20;5.07;;;;;;;18.00;81.49;100650.22;5051571;28;20540;-80
2021/07/08 00:18:23;;;;;;;6.47;5.45;;;;;;;17.98;81.87;100647.72;5051444;28;20021;-80
2021/07/08 00:20:48;;;;;;;5.68;4.93;;;;;;;17.98;82.20;100653.03;5051476;28;20734;-80
2021/07/08 00:23:16;;;;;;;8.35;5.00;;;;;;;17.96;81.83;100656.81;5051334;28;20129;-80
2021/07/08 00:25:41;;;;;;;6.75;4.88;;;;;;;17.73;81.27;100654.50;5038806;28;20029;-80
2021/07/08 00:28:10;;;;;;;10.18;6.47;;;;;;;17.74;81.67;100660.63;5031272;28;20144;-80
2021/07/08 00:30:35;;;;;;;5.35;4.63;;;;;;;17.76;81.55;100651.53;5031195;28;20074;-80
2021/07/08 00:33:01;;;;;;;7.25;5.05;;;;;;;17.70;81.97;100660.09;5031135;28;20108;-80
2021/07/08 00:35:26;;;;;;;7.47;5.35;;;;;;;17.70;81.85;100653.94;5031338;28;20079;-80
2021/07/08 00:37:53;;;;;;;8.20;5.32;;;;;;;17.69;82.52;100653.09;5031235;28;20044;-80
2021/07/08 00:40:19;;;;;;;11.18;5.32;;;;;;;17.71;82.45;100661.75;5041916;28;20040;-80
2021/07/08 00:42:45;;;;;;;13.15;5.80;;;;;;;17.56;82.72;100652.59;5050978;28;20068;-80
2021/07/08 00:45:13;;;;;;;11.57;6.00;;;;;;;17.47;82.44;100653.44;5051286;28;20036;-81
2021/07/08 00:47:39;;;;;;;7.13;5.75;;;;;;;17.52;83.32;100664.47;5051485;28;20060;-80
2021/07/08 00:50:09;;;;;;;9.48;6.55;;;;;;;17.48;83.56;100663.09;5055142;28;20055;-80
2021/07/08 00:52:35;;;;;;;6.78;5.82;;;;;;;17.49;83.57;100656.78;5054832;28;20025;-80
2021/07/08 00:55:01;;;;;;;8.93;5.75;;;;;;;17.51;83.68;100657.47;5044087;28;20120;-80
2021/07/08 00:57:26;;;;;;;6.47;5.55;;;;;;;17.52;83.66;100664.47;5035336;28;20100;-80
2021/07/08 00:59:53;;;;;;;11.30;6.10;;;;;;;17.50;84.29;100656.66;5035175;28;20030;-80
2021/07/08 01:02:20;;;;;;;9.15;5.78;;;;;;;17.44;83.19;100665.19;5033690;28;20028;-80
2021/07/08 01:04:46;;;;;;;6.65;5.07;;;;;;;17.52;82.97;100665.31;5034924;28;20033;-80
2021/07/08 01:07:13;;;;;;;10.63;5.47;;;;;;;17.49;82.54;100667.41;5034779;28;20025;-80
2021/07/08 01:09:39;;;;;;;8.43;5.45;;;;;;;17.44;83.09;100659.88;5044126;28;20032;-80
2021/07/08 01:12:05;;;;;;;5.82;5.20;;;;;;;17.35;84.28;100658.06;5054729;28;20375;-80
2021/07/08 01:14:31;;;;;;;12.73;6.32;;;;;;;17.38;83.56;100657.78;5053678;28;20060;-80
2021/07/08 01:16:56;;;;;;;7.70;5.95;;;;;;;17.39;83.79;100654.97;5053842;28;20103;-80
2021/07/08 01:19:22;;;;;;;6.47;4.97;;;;;;;17.35;82.91;100660.72;5054697;28;20021;-80
2021/07/08 01:21:47;;;;;;;9.35;5.57;;;;;;;17.28;82.95;100655.16;5054197;28;20025;-80
2021/07/08 01:24:13;;;;;;;9.60;5.90;;;;;;;17.28;82.40;100662.25;5054672;28;20037;-80
2021/07/08 01:26:39;;;;;;;7.80;5.57;;;;;;;17.32;83.05;100672.47;5054337;28;20045;-80
2021/07/08 01:29:05;;;;;;;8.57;6.68;;;;;;;17.22;83.89;100676.94;5054323;28;20104;-80
2021/07/08 01:31:30;;;;;;;9.95;6.88;;;;;;;17.19;84.07;100671.91;5034851;28;20168;-80
2021/07/08 01:33:56;;;;;;;13.27;7.10;;;;;;;17.25;83.89;100676.66;5034131;28;20059;-80
2021/07/08 01:36:21;;;;;;;6.35;5.75;;;;;;;17.40;83.65;100669.94;5034042;28;20026;-80
2021/07/08 01:38:47;;;;;;;10.93;6.57;;;;;;;17.39;83.91;100670.06;5034105;28;20032;-80
2021/07/08 01:41:12;;;;;;;9.07;7.10;;;;;;;17.38;84.04;100671.91;5034350;28;20022;-80
2021/07/08 01:43:40;;;;;;;9.23;6.35;;;;;;;17.40;83.89;100680.56;5034246;28;20322;-80
2021/07/08 01:46:07;;;;;;;8.30;7.28;;;;;;;17.45;84.21;100670.31;5052046;28;20040;-80
2021/07/08 01:48:34;;;;;;;9.20;6.70;;;;;;;17.45;83.90;100677.47;5053214;28;20380;-80
2021/07/08 01:51:27;;;;;;;8.27;6.30;;;;;;;17.47;84.59;100672.00;5054336;28;20025;-80
2021/07/08 01:53:52;;;;;;;7.38;6.20;;;;;;;17.46;84.31;100673.84;5053568;28;20029;-80
2021/07/08 01:56:18;;;;;;;6.70;6.10;;;;;;;17.43;83.92;100674.94;5052482;28;20498;-80
2021/07/08 01:58:44;;;;;;;7.43;6.22;;;;;;;17.45;83.76;100680.94;5053859;28;20025;-80
2021/07/08 02:01:09;;;;;;;7.35;5.75;;;;;;;17.44;83.45;100681.94;5052727;28;20024;-80
2021/07/08 02:03:34;;;;;;;10.18;6.55;;;;;;;17.43;84.35;100674.13;5053538;28;20112;-80
2021/07/08 02:06:00;;;;;;;7.75;6.38;;;;;;;17.42;84.12;100678.59;5053595;28;20100;-80
2021/07/08 02:08:25;;;;;;;9.27;6.60;;;;;;;17.48;84.35;100681.66;5053660;28;20029;-80
2021/07/08 02:10:50;;;;;;;12.68;6.75;;;;;;;17.48;84.08;100682.50;5053503;28;20024;-80
2021/07/08 02:13:16;;;;;;;6.13;5.53;;;;;;;17.49;83.71;100684.16;5053503;28;20108;-80
2021/07/08 02:15:42;;;;;;;9.85;6.65;;;;;;;17.49;84.32;100684.16;5053386;28;20024;-80
2021/07/08 02:18:07;;;;;;;7.20;6.03;;;;;;;17.47;83.43;100685.28;5053537;28;20025;-80
2021/07/08 02:20:33;;;;;;;8.63;5.80;;;;;;;17.45;84.05;100688.06;5053326;28;20472;-80
2021/07/08 02:22:59;;;;;;;9.60;5.47;;;;;;;17.42;83.14;100683.06;5053337;28;20035;-80
2021/07/08 02:25:25;;;;;;;9.13;5.68;;;;;;;17.39;83.57;100684.16;5053199;28;20025;-80
2021/07/08 02:27:51;;;;;;;7.07;5.35;;;;;;;17.37;83.56;100683.47;5053182;28;20033;-80
2021/07/08 02:30:21;;;;;;;8.00;5.13;;;;;;;17.38;83.48;100682.50;5053261;28;20025;-80
2021/07/08 02:32:52;;;;;;;6.00;5.40;;;;;;;17.37;83.64;100680.81;5053040;28;20036;-80
2021/07/08 02:35:18;;;;;;;10.45;6.22;;;;;;;17.34;83.56;100683.78;5053213;28;20155;-80
2021/07/08 02:37:44;;;;;;;8.73;5.50;;;;;;;17.26;84.44;100683.66;5053144;28;20050;-80
2021/07/08 02:40:14;;;;;;;9.32;5.88;;;;;;;17.24;85.28;100685.59;5052997;28;20017;-80
2021/07/08 02:42:40;;;;;;;10.82;6.40;;;;;;;17.27;85.45;100689.78;5052745;28;20029;-80
2021/07/08 02:45:08;;;;;;;12.10;6.80;;;;;;;17.31;85.29;100692.00;5052542;28;20029;-80
2021/07/08 02:47:34;;;;;;;9.90;6.60;;;;;;;17.32;85.32;100688.38;5052905;28;20037;-80
2021/07/08 02:50:00;;;;;;;9.75;6.30;;;;;;;17.41;85.63;100692.00;5052883;28;20025;-80
2021/07/08 02:52:25;;;;;;;7.88;5.93;;;;;;;17.48;86.37;100690.47;5052670;28;20467;-80
2021/07/08 02:54:50;;;;;;;8.45;6.60;;;;;;;17.54;86.18;100691.72;5052886;28;20122;-80
2021/07/08 02:57:16;;;;;;;7.78;6.75;;;;;;;17.57;86.51;100686.94;5052719;28;20017;-80
2021/07/08 02:59:41;;;;;;;8.32;6.18;;;;;;;17.63;85.75;100688.19;5052495;28;20390;-80
2021/07/08 03:02:06;;;;;;;8.55;5.93;;;;;;;17.72;85.88;100689.16;5052769;28;20474;-80
2021/07/08 03:04:32;;;;;;;6.05;5.50;;;;;;;17.84;84.80;100682.72;5052784;28;20025;-80
2021/07/08 03:06:57;;;;;;;10.93;7.03;;;;;;;17.95;84.02;100685.22;5052525;28;20017;-80
2021/07/08 03:09:22;;;;;;;7.82;5.90;;;;;;;17.95;84.30;100682.56;5052540;28;20025;-80
2021/07/08 03:11:48;;;;;;;6.78;5.68;;;;;;;17.95;84.26;100692.31;5051118;28;20040;-80
2021/07/08 03:14:13;;;;;;;6.57;5.88;;;;;;;17.99;84.22;100688.38;5052151;28;20063;-80
2021/07/08 03:16:38;;;;;;;7.95;5.90;;;;;;;18.03;84.88;100695.09;5052329;28;20529;-80
2021/07/08 03:19:04;;;;;;;7.00;6.30;;;;;;;18.04;84.76;100696.78;5052217;28;20550;-80
2021/07/08 03:21:29;;;;;;;10.05;6.07;;;;;;;18.03;84.78;100701.25;5052281;28;20029;-80
2021/07/08 03:23:54;;;;;;;8.73;6.72;;;;;;;18.10;84.54;100695.34;5052145;28;20028;-80
2021/07/08 03:26:20;;;;;;;8.70;6.47;;;;;;;18.12;84.47;100696.88;5052257;28;20115;-80
2021/07/08 03:28:45;;;;;;;10.35;6.88;;;;;;;18.15;84.39;100704.56;5052042;28;20021;-80
2021/07/08 03:31:10;;;;;;;9.80;7.38;;;;;;;18.19;83.96;100697.16;5052104;28;20024;-80
2021/07/08 03:33:36;;;;;;;10.75;7.00;;;;;;;18.19;84.54;100702.47;5051808;28;20521;-80
2021/07/08 03:36:01;;;;;;;9.63;6.60;;;;;;;18.17;84.07;100693.78;5052292;28;20032;-80
2021/07/08 03:38:27;;;;;;;10.50;6.88;;;;;;;18.21;84.66;100711.94;5051907;28;20075;-80
2021/07/08 03:40:52;;;;;;;11.30;7.00;;;;;;;18.18;84.34;100712.22;5052028;28;20045;-80
2021/07/08 03:43:17;;;;;;;13.65;7.78;;;;;;;18.18;83.74;100706.91;5051513;28;20490;-80
2021/07/08 03:45:43;;;;;;;8.05;6.13;;;;;;;18.22;84.16;100702.97;5051656;28;20368;-80
2021/07/08 03:48:08;;;;;;;10.50;7.40;;;;;;;18.26;84.22;100713.31;5051753;28;20029;-80
2021/07/08 03:50:33;;;;;;;8.23;6.05;;;;;;;18.28;84.30;100714.03;5051820;28;20111;-80
2021/07/08 03:52:59;;;;;;;14.40;7.38;;;;;;;18.28;84.01;100703.38;5051520;28;20032;-80
2021/07/08 03:55:26;;;;;;;9.40;6.63;;;;;;;18.31;84.82;100711.06;5051685;28;20021;-80
2021/07/08 03:57:52;;;;;;;8.73;6.60;;;;;;;18.30;84.38;100710.22;5051755;28;20498;-80
2021/07/08 04:00:30;;;;;;;10.18;6.53;;;;;;;18.30;84.12;100704.06;5051895;28;20021;-80
2021/07/08 04:02:58;;;;;;;7.18;5.68;;;;;;;18.34;84.06;100708.13;5052733;28;20479;-80
2021/07/08 04:05:23;;;;;;;9.65;7.20;;;;;;;18.31;84.31;100706.59;5051949;28;20115;-80
2021/07/08 04:07:49;;;;;;;9.13;7.22;;;;;;;18.35;83.84;100717.78;5051466;28;20095;-80
2021/07/08 04:10:14;;;;;;;8.35;7.43;;;;;;;18.35;84.25;100712.47;5051502;28;20086;-80
2021/07/08 04:12:40;;;;;;;13.07;7.10;;;;;;;18.36;84.03;100716.78;5051356;28;20403;-80
2021/07/08 04:15:06;;;;;;;11.20;8.70;;;;;;;18.40;83.81;100715.50;5051458;28;20116;-80
2021/07/08 04:17:31;;;;;;;9.38;7.70;;;;;;;18.39;84.13;100719.97;5051525;28;20024;-80
2021/07/08 04:19:57;;;;;;;10.57;8.05;;;;;;;18.42;83.97;100721.50;5051866;28;20021;-80
2021/07/08 04:22:24;;;;;;;10.55;7.70;;;;;;;18.47;84.13;100729.88;5051992;28;20032;-80
2021/07/08 04:24:49;;;;;;;10.35;7.78;;;;;;;18.55;84.16;100729.16;5055308;28;20126;-80
2021/07/08 04:27:15;;;;;;;9.60;8.43;;;;;;;18.55;83.97;100729.97;5055349;28;20052;-80
2021/07/08 04:29:40;;;;;;;9.00;8.02;;;;;;;18.54;83.48;100728.31;5055577;28;20064;-80
2021/07/08 04:32:06;;;;;;;8.85;7.40;;;;;;;18.59;83.66;100731.34;5055276;28;20055;-80
2021/07/08 04:34:31;;;;;;;8.27;7.40;;;;;;;18.58;82.97;100735.00;5055368;28;20028;-80
2021/07/08 04:36:57;;;;;;;9.30;7.25;;;;;;;18.58;83.47;100734.16;5055396;28;20072;-80
2021/07/08 04:39:22;;;;;;;7.60;6.80;;;;;;;18.61;83.77;100732.03;5055328;28;20528;-80
2021/07/08 04:41:47;;;;;;;7.97;7.13;;;;;;;18.63;83.94;100738.03;5055023;28;20067;-80
2021/07/08 04:44:13;;;;;;;10.00;7.70;;;;;;;18.64;83.74;100744.19;5055281;28;20032;-80
2021/07/08 04:46:39;;;;;;;9.43;7.38;;;;;;;18.63;83.30;100732.72;5055099;28;20037;-80
2021/07/08 04:49:05;;;;;;;12.75;7.57;;;;;;;18.71;83.31;100739.97;5055316;28;20021;-80
2021/07/08 04:51:31;;;;;;;8.63;7.03;;;;;;;18.68;83.26;100745.59;5055056;28;20475;-80
2021/07/08 04:53:56;;;;;;;9.93;6.88;;;;;;;18.70;83.39;100737.44;5053606;28;20033;-80
2021/07/08 04:56:21;;;;;;;11.80;7.78;;;;;;;18.72;83.66;100744.31;5053641;28;20021;-81
2021/07/08 04:58:47;;;;;;;10.20;7.65;;;;;;;18.76;83.03;100742.16;5055186;28;20021;-81
2021/07/08 05:01:13;;;;;;;10.77;8.73;;;;;;;18.81;83.27;100751.41;5055019;28;20017;-80
2021/07/08 05:03:39;;;;;;;10.07;8.25;;;;;;;18.88;82.65;100758.78;5054771;28;20025;-80
2021/07/08 05:06:04;;;;;;;10.93;8.85;;;;;;;18.83;83.01;100748.59;5054785;28;20036;-80
2021/07/08 05:08:29;;;;;;;10.25;8.30;;;;;;;18.90;82.90;100757.66;5054819;28;20493;-80
2021/07/08 05:10:55;;;;;;;11.18;8.57;;;;;;;18.93;82.69;100759.19;5054543;28;20068;-80
2021/07/08 05:13:20;;;;;;;12.02;8.23;;;;;;;18.93;82.42;100754.69;5054293;28;20029;-80
2021/07/08 05:15:45;;;;;;;8.70;7.82;;;;;;;18.98;82.63;100760.41;5054487;28;20021;-80
2021/07/08 05:18:11;;;;;;;9.18;7.78;;;;;;;19.04;82.48;100769.63;5054656;28;20036;-80
2021/07/08 05:20:38;;;;;;;11.45;7.97;;;;;;;19.08;82.92;100768.34;5054563;28;20383;-80
2021/07/08 05:23:06;;;;;;;19.25;9.27;;;;;;;19.12;82.32;100763.56;5054428;28;20048;-80
2021/07/08 05:25:31;;;;;;;11.35;7.57;;;;;;;19.18;82.47;100763.78;5054334;28;20025;-80
2021/07/08 05:27:56;;;;;;;8.07;7.18;;;;;;;19.19;82.62;100773.44;5054319;28;20028;-80
2021/07/08 05:30:22;;;;;;;11.07;7.90;;;;;;;19.20;82.70;100780.44;5054429;28;20434;-80
2021/07/08 05:32:47;;;;;;;9.13;7.57;;;;;;;19.22;82.68;100781.09;5054496;28;20364;-80
2021/07/08 05:35:13;;;;;;;10.13;7.70;;;;;;;19.27;82.87;100788.63;5052932;28;20540;-81
2021/07/08 05:37:39;;;;;;;10.25;8.40;;;;;;;19.30;83.12;100782.19;5054163;28;20029;-81
2021/07/08 05:40:05;;;;;;;8.40;6.85;;;;;;;19.31;82.20;100779.38;5054010;28;20091;-81
2021/07/08 05:42:31;;;;;;;8.98;7.95;;;;;;;19.37;82.42;100788.56;5054032;28;20052;-81
2021/07/08 05:44:57;;;;;;;9.88;8.32;;;;;;;19.37;82.70;100784.09;5054157;28;20475;-81
2021/07/08 05:47:22;;;;;;;9.48;8.15;;;;;;;19.43;82.31;100787.94;5053927;28;20028;-81
2021/07/08 05:49:47;;;;;;;10.00;7.88;;;;;;;19.48;82.42;100784.84;5053944;28;20059;-81
2021/07/08 05:52:13;;;;;;;10.30;7.10;;;;;;;19.55;82.56;100788.56;5052136;28;20107;-81
2021/07/08 05:54:38;;;;;;;12.85;8.65;;;;;;;19.58;81.34;100796.25;5035146;28;20129;-80
2021/07/08 05:57:04;;;;;;;11.77;7.75;;;;;;;19.61;81.75;100791.47;5033607;28;20022;-81
2021/07/08 05:59:29;;;;;;;8.05;7.25;;;;;;;19.63;82.46;100796.63;5047137;28;20025;-81
2021/07/08 06:01:55;;;;;;;10.82;7.60;;;;;;;19.71;82.60;100796.72;5051084;28;20039;-81
2021/07/08 06:04:21;;;;;;;8.85;7.57;;;;;;;19.83;82.41;100801.78;5041975;28;20021;-81
2021/07/08 06:06:46;;;;;;;10.27;8.00;;;;;;;19.80;81.58;100795.78;5044783;28;20086;-81
2021/07/08 06:09:12;;;;;;;9.82;7.93;;;;;;;19.95;82.29;100803.25;5034530;28;20120;-81
2021/07/08 06:11:38;;;;;;;10.18;7.90;;;;;;;20.02;81.53;100809.59;5038711;28;20049;-81
2021/07/08 06:14:03;;;;;;;12.13;8.70;;;;;;;20.08;81.16;100806.31;5053320;28;20061;-80
2021/07/08 06:16:28;;;;;;;11.88;7.78;;;;;;;20.18;80.36;100801.72;5053243;28;20457;-81
2021/07/08 06:18:54;;;;;;;13.68;8.25;;;;;;;20.16;79.59;100801.06;5049039;28;20033;-81
2021/07/08 06:21:19;;;;;;;8.73;7.35;;;;;;;20.27;79.37;100812.44;5044482;28;20029;-82
2021/07/08 06:23:45;;;;;;;8.52;7.63;;;;;;;20.32;79.17;100815.44;5047178;28;20116;-81
2021/07/08 06:26:10;;;;;;;8.35;7.60;;;;;;;20.21;79.03;100816.56;5051996;28;20020;-81
2021/07/08 06:28:37;;;;;;;9.18;7.25;;;;;;;20.34;78.92;100819.66;5051972;28;20479;-84
2021/07/08 06:31:03;;;;;;;10.05;7.55;;;;;;;20.38;78.44;100825.50;5041532;28;20029;-82
2021/07/08 06:33:28;;;;;;;7.35;6.50;;;;;;;20.42;78.41;100821.53;5048066;28;20034;-83
2021/07/08 06:35:54;;;;;;;7.35;6.25;;;;;;;20.51;78.51;100825.91;5047266;28;20021;-84
2021/07/08 06:38:19;;;;;;;10.75;7.20;;;;;;;20.50;77.97;100821.56;5052756;28;20025;-82
2021/07/08 06:40:45;;;;;;;8.40;6.75;;;;;;;20.50;78.14;100823.41;5051705;28;20025;-81
2021/07/08 06:43:10;;;;;;;8.48;7.65;;;;;;;20.51;77.69;100833.91;5033102;28;20490;-80
2021/07/08 06:45:36;;;;;;;12.07;8.20;;;;;;;20.58;78.80;100831.44;5033332;28;20034;-81
2021/07/08 06:48:06;;;;;;;8.75;7.30;;;;;;;20.77;77.63;100836.59;5036580;28;20057;-81
2021/07/08 06:50:36;;;;;;;10.88;7.20;;;;;;;20.95;76.53;100848.97;5036105;28;20021;-81
2021/07/08 06:53:03;;;;;;;6.68;5.97;;;;;;;20.93;76.62;100843.81;5040784;28;20061;-81
2021/07/08 06:55:29;;;;;;;8.52;6.25;;;;;;;20.99;76.45;100839.63;5041374;28;20063;-80
2021/07/08 06:57:54;;;;;;;6.45;5.85;;;;;;;21.07;76.41;100841.50;5040520;28;20503;-80
2021/07/08 07:00:25;;;;;;;7.88;6.20;;;;;;;21.08;75.26;100849.34;5046336;28;20421;-80
2021/07/08 07:02:51;;;;;;;6.57;5.97;;;;;;;21.06;76.09;100851.34;5040540;28;20063;-80
2021/07/08 07:05:17;;;;;;;7.45;6.13;;;;;;;21.10;76.45;100863.38;5045174;28;20395;-81
2021/07/08 07:07:42;;;;;;;8.93;6.57;;;;;;;21.10;76.32;100858.03;5033036;28;20032;-80
2021/07/08 07:10:08;;;;;;;7.78;6.32;;;;;;;21.24;76.37;100848.56;5031822;28;20076;-80
2021/07/08 07:12:40;;;;;;;7.13;5.85;;;;;;;21.25;74.96;100855.59;5044513;28;20033;-80
2021/07/08 07:15:06;;;;;;;8.90;5.55;;;;;;;21.44;74.88;100861.66;5043474;28;20116;-80
2021/07/08 07:17:33;;;;;;;6.82;5.70;;;;;;;21.48;75.06;100860.34;5048390;28;20424;-81
2021/07/08 07:19:58;;;;;;;7.07;5.15;;;;;;;21.64;74.81;100864.88;5040169;28;20063;-80
2021/07/08 07:22:24;;;;;;;9.27;6.32;;;;;;;21.61;73.64;100865.22;5032814;28;20053;-81
2021/07/08 07:24:51;;;;;;;10.77;5.53;;;;;;;21.71;73.06;100863.22;5031903;28;20083;-81
2021/07/08 07:27:16;;;;;;;5.88;5.28;;;;;;;21.90;73.76;100862.88;5035661;28;20274;-86
2021/07/08 07:29:42;;;;;;;8.10;4.82;;;;;;;22.08;73.03;100873.41;5038811;28;20570;-81
2021/07/08 07:32:08;;;;;;;7.82;5.43;;;;;;;22.18;71.93;100871.38;5033492;28;20360;-81
2021/07/08 07:34:33;;;;;;;8.13;5.80;;;;;;;22.32;72.57;100875.25;5041593;28;20037;-81
2021/07/08 07:36:58;;;;;;;9.35;5.72;;;;;;;22.25;70.27;100870.72;5032165;28;20040;-81
2021/07/08 07:39:24;;;;;;;7.28;4.90;;;;;;;22.37;71.44;100877.41;5033076;28;20095;-81
2021/07/08 07:41:49;;;;;;;5.97;5.35;;;;;;;22.50;71.02;100875.03;5032039;28;20033;-81
2021/07/08 07:44:14;;;;;;;6.10;5.20;;;;;;;22.54;69.51;100884.38;5043283;28;20025;-81
2021/07/08 07:46:40;;;;;;;9.82;5.65;;;;;;;22.48;71.18;100881.56;5032040;28;20116;-81
2021/07/08 07:49:07;;;;;;;9.18;6.30;;;;;;;22.73;69.97;100879.69;5047224;28;20021;-81
2021/07/08 07:51:32;;;;;;;8.13;6.47;;;;;;;22.82;67.75;100885.81;5048900;28;20056;-81
2021/07/08 07:53:58;;;;;;;12.55;6.40;;;;;;;23.00;68.15;100890.94;5049948;28;20517;-81
2021/07/08 07:56:24;;;;;;;8.70;5.88;;;;;;;23.10;66.08;100888.91;5051872;28;20029;-81
2021/07/08 07:58:49;;;;;;;7.82;5.72;;;;;;;23.48;66.61;100894.41;5050978;28;20090;-81
2021/07/08 08:01:14;;;;;;;7.82;5.60;;;;;;;23.65;67.01;100884.41;5051498;28;20029;-81
2021/07/08 08:03:42;;;;;;;6.97;6.10;;;;;;;23.87;63.92;100888.13;5051583;28;20029;-81
2021/07/08 08:08:52;;;;;;;8.43;6.85;;;;;;;24.53;62.63;100897.28;5051512;28;20056;-81
2021/07/08 08:11:19;;;;;;;12.05;6.38;;;;;;;24.54;61.23;100896.25;5051422;28;20459;-81
2021/07/08 08:13:45;;;;;;;10.85;5.68;;;;;;;24.68;60.22;100894.59;5051438;28;20043;-81
2021/07/08 08:16:10;;;;;;;6.93;6.22;;;;;;;24.77;60.95;100894.53;5038491;28;20025;-81
2021/07/08 08:18:36;;;;;;;9.32;5.78;;;;;;;24.65;60.95;100904.88;5039888;28;20096;-81
2021/07/08 08:21:02;;;;;;;8.50;5.68;;;;;;;24.68;61.10;100904.50;5051327;28;20390;-81
2021/07/08 08:23:27;;;;;;;8.27;5.88;;;;;;;24.71;61.35;100904.16;5034617;28;20041;-81
2021/07/08 08:25:53;;;;;;;8.02;5.82;;;;;;;25.03;60.30;100899.41;5041404;28;20078;-81
2021/07/08 08:28:19;;;;;;;9.10;6.22;;;;;;;25.60;59.77;100904.03;5035915;28;20032;-81
2021/07/08 08:30:44;;;;;;;11.20;5.90;;;;;;;26.44;57.21;100897.94;5039034;28;20039;-81
2021/07/08 08:33:11;;;;;;;8.48;5.30;;;;;;;26.88;56.07;100898.66;5047544;28;20026;-82
2021/07/08 08:35:36;;;;;;;11.52;5.53;;;;;;;26.83;55.18;100899.22;5035641;28;20017;-82
2021/07/08 08:38:03;;;;;;;6.25;5.18;;;;;;;26.68;54.63;100901.25;5049024;28;20029;-83
2021/07/08 08:40:29;;;;;;;8.38;5.20;;;;;;;26.80;53.67;100896.94;5031434;28;20033;-82
2021/07/08 08:42:54;;;;;;;8.32;5.28;;;;;;;26.87;53.42;100895.09;5039856;28;20039;-82
2021/07/08 08:45:20;;;;;;;7.30;5.53;;;;;;;27.50;51.14;100903.03;5050754;28;20028;-83
2021/07/08 08:47:53;;;;;;;7.00;5.43;;;;;;;27.67;53.16;100906.19;5043649;28;20445;-83
2021/07/08 08:50:18;;;;;;;5.22;4.72;;;;;;;27.39;53.54;100897.41;5031369;28;20056;-83
2021/07/08 08:52:46;;;;;;;6.43;5.35;;;;;;;27.44;53.31;100900.34;5037581;28;20056;-83
2021/07/08 08:55:11;;;;;;;7.90;5.57;;;;;;;27.57;52.62;100900.38;5035366;28;20034;-83
2021/07/08 08:57:39;;;;;;;5.88;4.75;;;;;;;27.81;52.42;100900.81;5035682;28;20071;-83
2021/07/08 09:00:25;;;;;;;6.47;5.53;;;;;;;28.01;49.50;100901.69;5050805;28;20409;-83
2021/07/08 09:03:12;;;;;;;6.70;5.10;;;;;;;28.73;48.42;100901.00;5043333;28;20014;-83
2021/07/08 09:05:39;;;;;;;8.00;4.15;;;;;;;29.48;48.26;100898.59;5031150;28;20109;-83
2021/07/08 09:08:21;;;;;;;5.57;3.92;;;;;;;29.41;47.00;100903.25;5030457;28;20021;-83
2021/07/08 09:10:48;;;;;;;4.88;4.38;;;;;;;29.58;46.17;100899.00;5034395;28;20032;-83
2021/07/08 09:13:14;;;;;;;4.85;4.38;;;;;;;29.76;46.46;100902.84;5036851;28;20036;-83
2021/07/08 09:15:40;;;;;;;10.30;4.68;;;;;;;30.24;44.08;100904.94;5052992;28;20037;-83
2021/07/08 09:18:05;;;;;;;4.82;4.07;;;;;;;30.51;44.26;100904.72;5054608;28;20013;-82
2021/07/08 09:20:32;;;;;;;5.97;4.03;;;;;;;30.88;41.22;100900.13;5036528;28;20510;-83
2021/07/08 09:23:11;;;;;;;5.47;3.88;;;;;;;31.48;41.98;100899.41;5034434;28;20064;-84
2021/07/08 09:25:37;;;;;;;3.90;3.50;;;;;;;32.26;39.48;100902.97;5035373;28;20029;-83
2021/07/08 09:28:36;;;;;;;3.80;3.33;;;;;;;32.11;38.97;100908.91;5033286;28;20380;-83
2021/07/08 09:31:04;;;;;;;6.30;3.97;;;;;;;32.52;40.33;100909.81;5030385;28;20045;-83
2021/07/08 09:33:35;;;;;;;6.70;4.25;;;;;;;32.61;37.98;100918.47;5034132;28;21081;-83
2021/07/08 09:36:10;;;;;;;4.10;3.70;;;;;;;32.15;39.48;100914.66;5053533;28;20017;-83
2021/07/08 09:38:36;;;;;;;6.45;3.80;;;;;;;31.98;37.77;100915.34;5053402;28;20454;-83
2021/07/08 09:41:25;;;;;;;5.25;3.45;;;;;;;31.70;41.29;100907.03;5054152;28;20029;-83
2021/07/08 09:43:51;;;;;;;4.05;3.45;;;;;;;31.35;41.67;100911.25;5051735;28;20071;-84
2021/07/08 09:46:17;;;;;;;4.70;3.72;;;;;;;31.07;42.53;100914.53;5034091;28;20033;-84
2021/07/08 09:49:18;;;;;;;5.15;3.03;;;;;;;32.04;40.02;100912.78;5034001;28;20079;-83
2021/07/08 09:51:44;;;;;;;6.57;3.53;;;;;;;31.32;40.86;100916.28;5012031;28;20038;-83
2021/07/08 09:56:59;;;;;;;3.30;2.97;;;;;;;31.90;40.17;100923.81;5034237;28;20453;-84
2021/07/08 09:59:35;;;;;;;3.65;3.03;;;;;;;31.52;40.97;100922.31;5038505;28;20382;-84
2021/07/08 10:02:00;;;;;;;5.55;3.25;;;;;;;30.92;41.99;100922.22;5053778;28;20379;-83
2021/07/08 10:04:27;;;;;;;7.78;3.67;;;;;;;30.40;43.11;100922.53;5048936;28;20022;-83
2021/07/08 10:06:54;;;;;;;5.65;3.38;;;;;;;29.99;44.51;100927.44;5033825;28;20026;-83
2021/07/08 10:09:21;;;;;;;6.32;3.38;;;;;;;28.92;44.94;100929.84;5037212;28;20103;-83
2021/07/08 10:11:49;;;;;;;5.20;3.88;;;;;;;28.63;47.15;100923.06;5053734;28;20418;-83
2021/07/08 10:14:19;;;;;;;5.40;3.85;;;;;;;28.64;48.04;100927.44;5051536;28;20116;-83
2021/07/08 10:16:54;;;;;;;4.40;3.08;;;;;;;29.99;44.66;100926.63;5033648;28;20049;-83
2021/07/08 10:19:21;;;;;;;5.55;3.38;;;;;;;31.10;42.32;100922.19;5034987;28;20021;-83
2021/07/08 10:21:48;;;;;;;5.20;2.47;;;;;;;32.51;38.59;100920.94;5052720;28;20029;-83
2021/07/08 10:24:15;;;;;;;4.28;2.55;;;;;;;33.57;35.99;100923.38;5052439;28;20016;-84
2021/07/08 10:26:42;;;;;;;3.63;2.30;;;;;;;34.24;34.00;100921.81;5033489;28;20383;-83
2021/07/08 10:29:09;;;;;;;3.17;2.00;;;;;;;33.32;34.36;100919.13;5033336;28;20032;-84
2021/07/08 10:31:36;;;;;;;3.15;2.25;;;;;;;33.28;36.02;100919.88;5052763;28;20033;-83
2021/07/08 10:34:11;;;;;;;2.47;2.10;;;;;;;33.58;36.17;100917.69;5053269;28;20025;-84
2021/07/08 10:36:38;;;;;;;3.08;2.00;;;;;;;32.64;36.88;100926.13;5034292;28;20476;-84
2021/07/08 10:39:14;;;;;;;7.93;1.90;;;;;;;31.38;38.97;100923.50;5033021;28;20076;-84
2021/07/08 10:41:42;;;;;;;4.75;2.30;;;;;;;30.80;42.41;100928.38;5050481;28;20045;-83
2021/07/08 10:44:46;;;;;;;3.15;2.25;;;;;;;29.45;42.82;100929.63;5047649;28;20025;-83
2021/07/08 10:47:32;;;;;;;4.18;2.03;;;;;;;28.69;45.00;100941.13;5029507;28;20511;-83
2021/07/08 10:49:58;;;;;;;3.92;1.92;;;;;;;27.65;47.19;100932.53;5043507;28;20033;-83
2021/07/08 10:52:41;;;;;;;2.78;2.40;;;;;;;27.55;47.47;100942.03;5052751;28;20031;-83
2021/07/08 10:55:07;;;;;;;4.43;2.95;;;;;;;27.13;49.02;100936.69;5040675;28;20057;-83
2021/07/08 10:57:40;;;;;;;6.25;2.83;;;;;;;27.07;49.42;100934.78;5032850;28;20396;-82
2021/07/08 11:00:10;;;;;;;4.45;2.50;;;;;;;26.98;50.21;100936.00;5043442;28;20028;-83
2021/07/08 11:02:48;;;;;;;4.47;2.33;;;;;;;26.77;51.13;100928.84;5052533;28;20505;-83
2021/07/08 11:05:34;;;;;;;8.02;2.83;;;;;;;26.82;50.91;100931.78;5047262;28;20063;-82
2021/07/08 11:07:59;;;;;;;2.80;2.35;;;;;;;26.59;52.29;100929.34;5034144;28;20073;-83
2021/07/08 11:10:32;;;;;;;3.47;2.40;;;;;;;26.44;52.78;100930.25;5032549;28;20056;-83
2021/07/08 11:13:27;;;;;;;3.35;2.45;;;;;;;26.54;50.92;100931.75;5042656;28;20103;-83
2021/07/08 11:15:54;;;;;;;3.35;2.63;;;;;;;26.40;50.45;100929.00;5041190;28;20025;-82
2021/07/08 11:18:32;;;;;;;4.88;2.70;;;;;;;26.41;50.69;100922.56;5045209;28;20039;-82
2021/07/08 11:20:59;;;;;;;3.65;2.95;;;;;;;26.25;52.88;100933.63;5041157;28;20029;-82
2021/07/08 11:23:42;;;;;;;3.35;2.88;;;;;;;26.11;52.01;100927.31;5033943;28;20039;-82
2021/07/08 11:26:09;;;;;;;4.10;3.00;;;;;;;26.28;51.84;100933.22;5050465;28;20021;-82
2021/07/08 11:28:35;;;;;;;5.00;3.25;;;;;;;26.67;51.25;100931.88;5049204;28;20024;-82
2021/07/08 11:31:02;;;;;;;7.10;3.30;;;;;;;26.44;51.44;100922.19;5051580;28;20043;-82